Weather observations for the past three days for
Mercury, Desert Rock Airport
| Date | Time (pdt) | Wind (mph) | Vis. (mi.) | Weather | Sky Cond. | Temperature (ºF) | Relative Humidity | Wind Chill (°F) | Heat Index (°F) | Pressure | Precipitation (in) | ||||||
|---|---|---|---|---|---|---|---|---|---|---|---|---|---|---|---|---|---|
| Air | Dwpt | 6 hour | altimeter (in) | sea level (mb) | 1 hr | 3 hr | 6 hr | ||||||||||
| Max. | Min. | ||||||||||||||||
| 04 | 17:53 | S 21 G 35 | 10.00 | Fair and Breezy | CLR | 70 | 23 | 17% | 29.76 | 1004.5 | |||||||
| 04 | 16:53 | SE 21 G 33 | 10.00 | Fair and Breezy | CLR | 72 | 26.1 | 72 | 64 | 18% | 29.77 | 1004.5 | |||||
| 04 | 15:53 | S 13 G 31 | 10.00 | Fair | CLR | 71.1 | 28 | 20% | 29.77 | 1004.7 | |||||||
| 04 | 14:53 | S 23 G 41 | 10.00 | Fair and Breezy | CLR | 71.1 | 28 | 20% | 29.78 | 1005.0 | |||||||
| 04 | 13:53 | S 26 G 39 | 10.00 | Fair and Windy | CLR | 72 | 27 | 19% | 29.79 | 1005.0 | |||||||
| 04 | 12:53 | S 26 G 41 | 10.00 | Fair and Windy | CLR | 69.1 | 30 | 23% | 29.8 | 1005.6 | |||||||
| 04 | 11:53 | S 21 G 31 | 10.00 | Fair and Breezy | CLR | 66.9 | 36 | 32% | 29.82 | 1006.3 | |||||||
| 04 | 10:53 | S 22 G 33 | 10.00 | Fair and Breezy | CLR | 64.9 | 36 | 64.9 | 55 | 34% | 29.84 | 1006.8 | |||||
| 04 | 09:53 | S 21 G 29 | 10.00 | Fair and Breezy | CLR | 63 | 36 | 37% | 29.84 | 1006.9 | |||||||
| 04 | 08:53 | S 20 | 10.00 | Fair | CLR | 61 | 37 | 41% | 29.83 | 1006.5 | |||||||
| 04 | 07:53 | SW 13 | 10.00 | Fair | CLR | 59 | 37 | 44% | 29.83 | 1006.4 | |||||||
| 04 | 06:53 | NW 10 | 10.00 | Fair | CLR | 57 | 35.1 | 44% | 29.81 | 1005.8 | |||||||
| 04 | 05:53 | S 12 G 23 | 10.00 | Fair | CLR | 55.9 | 34 | 44% | 29.8 | 1005.3 | |||||||
| 04 | 04:53 | SW 17 G 25 | 10.00 | Fair | CLR | 57 | 33.1 | 68 | 57 | 41% | 29.79 | 1004.7 | |||||
| 04 | 03:53 | S 9 | 10.00 | Fair | CLR | 57.9 | 30.9 | 36% | 29.79 | 1004.6 | |||||||
| 04 | 02:53 | NW 7 | 10.00 | Fair | CLR | 60.1 | 26.1 | 27% | 29.79 | 1004.7 | |||||||
| 04 | 01:53 | SW 17 | 10.00 | Fair | CLR | 63 | 28 | 27% | 29.77 | 1003.8 | |||||||
| 04 | 00:53 | S 15 | 10.00 | Fair | CLR | 64 | 30.9 | 29% | 29.78 | 1004.0 | |||||||
| 03 | 23:53 | SW 10 | 10.00 | Fair | CLR | 66 | 32 | 28% | 29.77 | 1003.9 | |||||||
| 03 | 22:53 | SE 5 | 10.00 | Fair | CLR | 66.9 | 33.1 | 84.9 | 66 | 29% | 29.76 | 1003.4 | |||||
| 03 | 21:53 | SW 3 | 10.00 | Fair | CLR | 69.1 | 33.1 | 26% | 29.77 | 1003.7 | |||||||
| 03 | 20:53 | S 10 | 10.00 | Fair | CLR | 73 | 27 | 18% | 29.74 | 1003.0 | |||||||
| 03 | 19:53 | SW 13 G 24 | 10.00 | Fair | CLR | 75 | 25 | 15% | 75 | 29.72 | 1002.2 | ||||||
| 03 | 18:53 | S 16 | 10.00 | Fair | CLR | 79 | 26.1 | 14% | 78 | 29.71 | 1002.0 | ||||||
| 03 | 17:53 | S 23 G 38 | 10.00 | A Few Clouds and Breezy | FEW110 | 82 | 21.9 | 11% | 80 | 29.71 | 1002.3 | ||||||
| 03 | 16:53 | S 16 G 22 | 10.00 | Fair | CLR | 84 | 24.1 | 86 | 78.1 | 11% | 81 | 29.71 | 1002.3 | ||||
| 03 | 15:53 | E 12 | 10.00 | Fair | CLR | 82 | 23 | 11% | 80 | 29.73 | 1002.8 | ||||||
| 03 | 14:53 | E 12 G 47 | 10.00 | Partly Cloudy | SCT095 SCT120 | 78.1 | 28 | 16% | 77 | 29.77 | 1004.6 | ||||||
| 03 | 13:53 | SE 22 G 31 | 10.00 | Fair and Breezy | CLR | 84.9 | 23 | 10% | 82 | 29.79 | 1004.6 | ||||||
| 03 | 12:53 | S 10 G 35 | 10.00 | Fair | CLR | 84 | 24.1 | 11% | 81 | 29.81 | 1005.4 | ||||||
| 03 | 11:53 | SE 8 | 10.00 | A Few Clouds | FEW120 | 80.1 | 19 | 10% | 78 | 29.84 | 1006.4 | ||||||
| 03 | 10:53 | NE 14 G 23 | 10.00 | Fair | CLR | 82 | 12 | 82 | 50 | 7% | 80 | 29.87 | 1007.0 | ||||
| 03 | 09:53 | E 7 | 10.00 | Fair | CLR | 78.1 | 9 | 7% | 76 | 29.88 | 1007.6 | ||||||
| 03 | 08:53 | Calm | 10.00 | Fair | CLR | 70 | 10 | 10% | 29.9 | 1008.5 | |||||||
| 03 | 07:53 | NW 3 | 10.00 | Fair | CLR | 64.9 | 10 | 11% | 29.92 | 1009.1 | |||||||
| 03 | 06:53 | Calm | 10.00 | Fair | CLR | 57.9 | 10.9 | 15% | 29.91 | 1009.0 | |||||||
| 03 | 05:53 | Calm | 10.00 | Fair | CLR | 52 | 8.1 | 17% | 29.89 | 1008.7 | |||||||
| 03 | 04:53 | NE 5 | 10.00 | Fair | CLR | 51.1 | 8.1 | 66.9 | 51.1 | 17% | 29.88 | 1008.4 | |||||
| 03 | 03:53 | NW 5 | 10.00 | Fair | CLR | 55.9 | 9 | 15% | 29.9 | 1008.6 | |||||||
| 03 | 02:53 | N 6 | 10.00 | Fair | CLR | 55.9 | 8.1 | 14% | 29.89 | 1008.4 | |||||||
| 03 | 01:53 | NE 3 | 10.00 | Fair | CLR | 59 | 8.1 | 13% | 29.9 | 1008.6 | |||||||
| 03 | 00:53 | Vrbl 3 | 10.00 | Fair | CLR | 60.1 | 9 | 13% | 29.91 | 1008.9 | |||||||
| 02 | 23:53 | Vrbl 3 | 10.00 | Fair | CLR | 64 | 8.1 | 11% | 29.92 | 1009.2 | |||||||
| 02 | 22:53 | NE 7 | 10.00 | Fair | CLR | 64.9 | 8.1 | 82 | 64.9 | 10% | 29.92 | 1009.0 | |||||
| 02 | 21:53 | E 8 | 10.00 | Fair | CLR | 69.1 | 8.1 | 9% | 29.92 | 1008.9 | |||||||
| 02 | 20:53 | E 9 | 10.00 | Fair | CLR | 71.1 | 8.1 | 8% | 29.91 | 1008.7 | |||||||
| 02 | 19:53 | E 7 | 10.00 | Fair | CLR | 73.9 | 10 | 8% | 29.89 | 1008.1 | |||||||
| 02 | 18:53 | E 7 G 20 | 10.00 | Fair | CLR | 80.1 | 9 | 6% | 78 | 29.88 | 1007.7 | ||||||
| 02 | 17:53 | Calm | 10.00 | Fair | CLR | 81 | 12 | 7% | 79 | 29.88 | 1008.2 | ||||||
| 02 | 16:53 | Vrbl 3 | 10.00 | Fair | CLR | 81 | 12 | 82.9 | 75.9 | 7% | 79 | 29.89 | 1008.4 | ||||
| 02 | 15:53 | SE 10 G 16 | 10.00 | Fair | CLR | 82.9 | 12 | 7% | 80 | 29.91 | 1008.5 | ||||||
| 02 | 14:53 | Calm | 10.00 | Fair | CLR | 81 | 10.9 | 7% | 79 | 29.94 | 1009.7 | ||||||
| 02 | 13:53 | Vrbl 5 G 17 | 10.00 | Fair | CLR | 81 | 12 | 7% | 79 | 29.96 | 1010.7 | ||||||
| 02 | 12:53 | Vrbl 6 | 10.00 | Fair | CLR | 80.1 | 10.9 | 7% | 78 | 29.99 | 1011.6 | ||||||
| 02 | 11:53 | Vrbl 3 | 10.00 | Fair | CLR | 78.1 | 10 | 7% | 77 | 30.02 | 1012.5 | ||||||
| 02 | 10:53 | E 12 | 10.00 | Fair | CLR | 78.1 | 12 | 79 | 55 | 8% | 77 | 30.04 | 1013.2 | ||||
| 02 | 09:53 | E 10 | 10.00 | Fair | CLR | 73.9 | 12.9 | 10% | 30.05 | 1013.9 | |||||||
| 02 | 08:53 | N 6 | 10.00 | Fair | CLR | 70 | 14 | 11% | 30.06 | 1013.9 | |||||||
| 02 | 07:53 | NE 5 | 10.00 | Fair | CLR | 66 | 12 | 12% | 30.05 | 1013.7 | |||||||
| 02 | 06:53 | E 6 | 10.00 | Fair | CLR | 59 | 10.9 | 15% | 30.04 | 1013.8 | |||||||
| 02 | 05:53 | NE 7 | 10.00 | Fair | CLR | 55 | 10.9 | 17% | 30.03 | 1013.4 | |||||||
| 02 | 04:53 | NE 5 | 10.00 | Fair | CLR | 57 | 10 | 66 | 55.9 | 15% | 30.02 | 1012.8 | |||||
| 02 | 03:53 | NE 10 | 10.00 | Fair | CLR | 62.1 | 10 | 13% | 30.02 | 1012.5 | |||||||
| 02 | 02:53 | NE 5 | 10.00 | Fair | CLR | 60.1 | 10 | 14% | 30.01 | 1012.3 | |||||||
| 02 | 01:53 | E 13 | 10.00 | Fair | CLR | 59 | 10.9 | 15% | 30.01 | 1012.5 | |||||||
| 02 | 00:53 | NE 8 | 10.00 | Fair | CLR | 61 | 10.9 | 14% | 30.02 | 1012.7 | |||||||
| 01 | 23:53 | NE 8 | 10.00 | Fair | CLR | 66 | 12 | 12% | 30.01 | 1012.1 | |||||||
| 01 | 22:53 | NE 8 | 10.00 | Fair | CLR | 64 | 12 | 80.1 | 64 | 13% | 30 | 1011.9 | |||||
| 01 | 21:53 | NE 8 | 10.00 | Fair | CLR | 66 | 12 | 12% | 29.99 | 1011.9 | |||||||
| 01 | 20:53 | N 8 | 10.00 | Fair | CLR | 70 | 12.9 | 11% | 29.97 | 1011.1 | |||||||
| 01 | 19:53 | N 7 | 10.00 | Fair | CLR | 73 | 14 | 10% | 29.94 | 1010.1 | |||||||
| 01 | 18:53 | N 13 | 10.00 | Fair | CLR | 77 | 12.9 | 9% | 76 | 29.93 | 1009.7 | ||||||
| Date | Time (pdt) | Wind (mph) | Vis. (mi.) | Weather | Sky Cond. | Air | Dwpt | Max. | Min. | Relative Humidity | Wind Chill (°F) | Heat Index (°F) | altimeter (in) | sea level (mb) | 1 hr | 3 hr | 6 hr |
| 6 hour | |||||||||||||||||
| Temperature (ºF) | Pressure | Precipitation (in) | |||||||||||||||